createdAt,value
2019-03-27T00:01:29.260Z,-1.30
2019-03-27T00:03:38.588Z,-1.30
2019-03-27T00:05:58.580Z,-1.30
2019-03-27T00:08:04.546Z,-1.20
2019-03-27T00:10:11.435Z,-1.30
2019-03-27T00:12:17.510Z,-1.20
2019-03-27T00:14:23.792Z,-1.10
2019-03-27T00:16:32.831Z,-1.00
2019-03-27T00:18:38.910Z,-1.00
2019-03-27T00:20:44.931Z,-0.90
2019-03-27T00:22:51.065Z,-0.90
2019-03-27T00:24:57.390Z,-1.10
2019-03-27T00:27:03.937Z,-1.10
2019-03-27T00:29:09.903Z,-1.20
2019-03-27T00:31:16.376Z,-1.20
2019-03-27T00:33:23.575Z,-1.30
2019-03-27T00:35:31.742Z,-1.30
2019-03-27T00:37:37.720Z,-1.40
2019-03-27T00:39:43.923Z,-1.20
2019-03-27T00:41:49.926Z,-1.20
2019-03-27T00:43:56.069Z,-1.20
2019-03-27T00:46:02.194Z,-1.30
2019-03-27T00:48:08.306Z,-1.30
2019-03-27T00:50:14.456Z,-1.20
2019-03-27T00:52:20.618Z,-1.00
2019-03-27T00:54:29.319Z,-0.80
2019-03-27T00:56:35.290Z,-0.70
2019-03-27T00:58:41.306Z,-0.80
2019-03-27T01:01:15.486Z,-0.90
2019-03-27T01:03:21.438Z,-0.90
2019-03-27T01:05:30.346Z,-0.90
2019-03-27T01:07:36.367Z,-0.80
2019-03-27T01:09:42.362Z,-0.90
2019-03-27T01:11:48.447Z,-0.90
2019-03-27T01:13:54.527Z,-0.90
2019-03-27T01:16:00.579Z,-1.00
2019-03-27T01:18:06.595Z,-0.90
2019-03-27T01:20:14.082Z,-0.80
2019-03-27T01:22:22.445Z,-0.80
2019-03-27T01:24:28.658Z,-0.80
2019-03-27T01:26:34.654Z,-0.80
2019-03-27T01:28:40.603Z,-0.70
2019-03-27T01:30:46.566Z,-0.70
2019-03-27T01:32:52.555Z,-0.80
2019-03-27T01:34:58.531Z,-0.90
2019-03-27T01:37:04.521Z,-0.90
2019-03-27T01:39:10.694Z,-1.00
2019-03-27T01:41:16.709Z,-1.10
2019-03-27T01:43:22.785Z,-1.30
2019-03-27T01:45:29.060Z,-1.30
2019-03-27T01:47:35.045Z,-1.30
2019-03-27T01:49:41.097Z,-1.40
2019-03-27T01:51:47.122Z,-1.50
2019-03-27T01:53:53.178Z,-1.50
2019-03-27T01:55:59.166Z,-1.50
2019-03-27T01:58:06.618Z,-1.50
2019-03-27T02:00:14.175Z,-1.60
2019-03-27T02:02:20.130Z,-1.60
2019-03-27T02:04:26.107Z,-1.60
2019-03-27T02:06:32.101Z,-1.80
2019-03-27T02:08:38.102Z,-1.80
2019-03-27T02:10:44.147Z,-1.80
2019-03-27T02:12:50.150Z,-1.70
2019-03-27T02:14:56.198Z,-1.70
2019-03-27T02:17:02.191Z,-1.70
2019-03-27T02:19:08.204Z,-1.70
2019-03-27T02:21:15.314Z,-1.60
2019-03-27T02:23:21.349Z,-1.50
2019-03-27T02:25:27.324Z,-1.40
2019-03-27T02:27:36.294Z,-1.50
2019-03-27T02:29:42.270Z,-1.50
2019-03-27T02:31:48.259Z,-1.40
2019-03-27T02:33:54.232Z,-1.40
2019-03-27T02:36:00.197Z,-1.40
2019-03-27T02:38:06.371Z,-1.50
2019-03-27T02:40:12.478Z,-1.50
2019-03-27T02:42:18.627Z,-1.50
2019-03-27T02:44:24.635Z,-1.60
2019-03-27T02:46:33.095Z,-1.60
2019-03-27T02:48:39.063Z,-1.60
2019-03-27T02:50:45.087Z,-1.70
2019-03-27T02:52:51.167Z,-1.60
2019-03-27T02:54:57.270Z,-1.70
2019-03-27T02:57:03.329Z,-1.70
2019-03-27T02:59:09.407Z,-1.70
2019-03-27T03:01:15.464Z,-1.70
2019-03-27T03:03:21.502Z,-1.70
2019-03-27T03:05:27.488Z,-1.80
2019-03-27T03:07:33.508Z,-1.70
2019-03-27T03:09:39.535Z,-1.70
2019-03-27T03:11:45.586Z,-1.60
2019-03-27T03:13:51.566Z,-1.60
2019-03-27T03:15:58.466Z,-1.70
2019-03-27T03:18:04.615Z,-1.70
2019-03-27T03:20:11.627Z,-1.70
2019-03-27T03:22:17.712Z,-1.60
2019-03-27T03:24:23.743Z,-1.50
2019-03-27T03:26:30.634Z,-1.40
2019-03-27T03:28:36.748Z,-1.30
2019-03-27T03:30:42.883Z,-1.30
2019-03-27T03:32:48.985Z,-1.10
2019-03-27T03:34:55.310Z,-1.10
2019-03-27T03:37:01.415Z,-1.10
2019-03-27T03:39:08.414Z,-1.00
2019-03-27T03:41:14.499Z,-1.10
2019-03-27T03:43:20.586Z,-1.00
2019-03-27T03:45:26.655Z,-1.00
2019-03-27T03:47:35.188Z,-1.00
2019-03-27T03:49:41.167Z,-0.90
2019-03-27T03:51:47.167Z,-1.00
2019-03-27T03:53:53.479Z,-1.00
2019-03-27T03:56:00.953Z,-0.90
2019-03-27T03:58:09.926Z,-1.00
2019-03-27T04:00:16.003Z,-1.00
2019-03-27T04:02:23.907Z,-0.90
2019-03-27T04:04:33.553Z,-0.80
2019-03-27T04:06:39.569Z,-0.90
2019-03-27T04:08:45.613Z,-0.90
2019-03-27T04:10:51.665Z,-1.00
2019-03-27T04:12:58.926Z,-1.00
2019-03-27T04:15:06.328Z,-0.90
2019-03-27T04:17:41.181Z,-0.90
2019-03-27T04:19:55.690Z,-0.90
2019-03-27T04:22:02.835Z,-0.90
2019-03-27T04:24:09.172Z,-0.80
2019-03-27T04:26:15.168Z,-0.60
2019-03-27T04:28:21.243Z,-0.60
2019-03-27T04:30:27.682Z,-0.50
2019-03-27T04:32:55.511Z,-0.50
2019-03-27T04:35:03.172Z,-0.50
2019-03-27T04:37:10.956Z,-0.50
2019-03-27T04:39:16.989Z,-0.50
2019-03-27T04:41:23.066Z,-0.50
2019-03-27T04:43:29.130Z,-0.50
2019-03-27T04:45:35.143Z,-0.40
2019-03-27T04:47:44.318Z,-0.40
2019-03-27T04:49:50.291Z,-0.40
2019-03-27T04:51:56.511Z,-0.40
2019-03-27T04:54:02.490Z,-0.40
2019-03-27T04:56:08.442Z,-0.50
2019-03-27T04:58:14.427Z,-0.60
2019-03-27T05:00:20.382Z,-0.50
2019-03-27T05:02:26.374Z,-0.40
2019-03-27T05:04:32.450Z,-0.40
2019-03-27T05:06:38.434Z,-0.30
2019-03-27T05:08:47.403Z,-0.20
2019-03-27T05:10:53.371Z,-0.20
2019-03-27T05:12:59.427Z,-0.10
2019-03-27T05:15:05.851Z,-0.10
2019-03-27T05:17:11.950Z,0.00
2019-03-27T05:19:18.002Z,0.10
2019-03-27T05:21:24.010Z,0.10
2019-03-27T05:23:30.035Z,0.10
2019-03-27T05:25:36.011Z,0.20
2019-03-27T05:27:41.967Z,0.20
2019-03-27T05:29:49.154Z,0.20
2019-03-27T05:31:55.107Z,0.30
2019-03-27T05:34:01.171Z,0.40
2019-03-27T05:36:07.098Z,0.40
2019-03-27T05:38:13.075Z,0.60
2019-03-27T05:40:20.596Z,0.60
2019-03-27T05:42:26.544Z,0.60
2019-03-27T05:44:32.542Z,0.60
2019-03-27T05:46:38.531Z,0.60
2019-03-27T05:48:46.121Z,0.50
2019-03-27T05:50:52.087Z,0.70
2019-03-27T05:52:58.134Z,0.80
2019-03-27T05:55:04.199Z,0.80
2019-03-27T05:57:10.135Z,1.00
2019-03-27T05:59:17.723Z,1.00
2019-03-27T06:01:23.815Z,1.10
2019-03-27T06:03:32.722Z,1.10
2019-03-27T06:05:38.676Z,1.20
2019-03-27T06:07:44.599Z,1.30
2019-03-27T06:09:50.806Z,1.30
2019-03-27T06:11:58.962Z,1.50
2019-03-27T06:14:04.953Z,1.60
2019-03-27T06:16:10.908Z,1.60
2019-03-27T06:18:16.882Z,1.70
2019-03-27T06:20:22.869Z,1.80
2019-03-27T06:22:28.847Z,1.90
2019-03-27T06:24:34.913Z,2.00
2019-03-27T06:26:40.950Z,2.10
2019-03-27T06:28:47.004Z,2.20
2019-03-27T06:30:53.036Z,2.30
2019-03-27T06:32:59.069Z,2.30
2019-03-27T06:35:07.592Z,2.40
2019-03-27T06:37:13.686Z,2.50
2019-03-27T06:39:20.018Z,2.50
2019-03-27T06:41:26.195Z,2.50
2019-03-27T06:43:32.265Z,2.70
2019-03-27T06:45:38.382Z,2.70
2019-03-27T06:47:44.436Z,2.80
2019-03-27T06:49:50.495Z,2.90
2019-03-27T06:51:56.843Z,2.90
2019-03-27T06:54:02.837Z,3.10
2019-03-27T06:56:15.032Z,3.10
2019-03-27T06:58:21.105Z,3.30
2019-03-27T07:00:35.483Z,3.40
2019-03-27T07:02:42.322Z,3.50
2019-03-27T07:04:48.407Z,3.70
2019-03-27T07:06:54.551Z,3.70
2019-03-27T07:09:00.591Z,3.80
2019-03-27T07:11:06.576Z,4.00
2019-03-27T07:13:12.742Z,4.20
2019-03-27T07:15:20.810Z,4.30
2019-03-27T07:17:26.919Z,4.70
2019-03-27T07:19:32.899Z,4.90
2019-03-27T07:21:38.883Z,5.00
2019-03-27T07:23:44.868Z,5.20
2019-03-27T07:25:50.859Z,5.40
2019-03-27T07:27:56.927Z,5.60
2019-03-27T07:30:05.450Z,5.90
2019-03-27T07:32:11.514Z,6.30
2019-03-27T07:34:20.418Z,6.60
2019-03-27T07:36:26.411Z,6.90
2019-03-27T07:38:32.403Z,7.10
2019-03-27T07:40:38.398Z,7.40
2019-03-27T07:42:44.442Z,7.40
2019-03-27T07:44:50.435Z,7.80
2019-03-27T07:46:56.477Z,7.80
2019-03-27T07:49:02.447Z,7.80
2019-03-27T07:51:08.470Z,8.00
2019-03-27T07:53:14.520Z,8.30
2019-03-27T07:55:23.122Z,8.50
2019-03-27T07:57:29.222Z,8.40
2019-03-27T07:59:37.214Z,8.30
2019-03-27T08:01:43.182Z,8.20
2019-03-27T08:03:49.258Z,8.00
2019-03-27T08:05:55.198Z,8.20
2019-03-27T08:08:01.175Z,8.50
2019-03-27T08:10:08.010Z,8.40
2019-03-27T08:12:14.475Z,8.60
2019-03-27T08:14:20.577Z,8.40
2019-03-27T08:16:26.586Z,8.40
2019-03-27T08:18:32.551Z,8.10
2019-03-27T08:20:38.591Z,8.20
2019-03-27T08:22:44.625Z,8.50
2019-03-27T08:24:50.612Z,8.60
2019-03-27T08:26:56.579Z,9.00
2019-03-27T08:29:02.560Z,9.60
2019-03-27T08:31:08.586Z,9.40
2019-03-27T08:33:14.647Z,9.50
2019-03-27T08:35:20.672Z,9.90
2019-03-27T08:37:26.755Z,9.80
2019-03-27T08:39:32.790Z,10.10
2019-03-27T08:41:38.832Z,10.10
2019-03-27T08:43:45.176Z,10.30
2019-03-27T08:45:51.231Z,9.90
2019-03-27T08:47:57.354Z,10.20
2019-03-27T08:50:03.669Z,10.40
2019-03-27T08:52:09.694Z,10.60
2019-03-27T08:54:15.704Z,10.50
2019-03-27T08:56:24.685Z,10.20
2019-03-27T08:58:33.700Z,9.80
2019-03-27T09:00:46.950Z,9.50
2019-03-27T09:02:55.222Z,9.70
2019-03-27T09:05:01.299Z,10.10
2019-03-27T09:07:07.471Z,10.30
2019-03-27T09:09:13.455Z,10.00
2019-03-27T09:11:19.411Z,9.70
2019-03-27T09:13:25.477Z,9.70
2019-03-27T09:15:31.523Z,9.40
2019-03-27T09:17:39.190Z,9.40
2019-03-27T09:19:45.225Z,9.30
2019-03-27T09:21:51.276Z,9.40
2019-03-27T09:23:58.239Z,9.20
2019-03-27T09:26:04.222Z,9.10
2019-03-27T09:28:10.286Z,9.20
2019-03-27T09:30:16.383Z,9.20
2019-03-27T09:32:22.334Z,9.80
2019-03-27T09:34:28.434Z,9.50
2019-03-27T09:36:34.422Z,9.10
2019-03-27T09:38:40.573Z,8.90
2019-03-27T09:40:47.051Z,9.40
2019-03-27T09:42:53.071Z,10.00
2019-03-27T09:44:59.075Z,9.70
2019-03-27T09:47:05.135Z,9.60
2019-03-27T09:49:11.683Z,9.00
2019-03-27T09:51:17.823Z,8.80
2019-03-27T09:53:23.831Z,8.60
2019-03-27T09:55:29.818Z,8.80
2019-03-27T09:57:35.771Z,8.90
2019-03-27T09:59:41.968Z,9.20
2019-03-27T10:01:47.938Z,9.20
2019-03-27T10:03:55.361Z,9.00
2019-03-27T10:06:02.635Z,9.30
2019-03-27T10:08:10.026Z,9.30
2019-03-27T10:10:16.231Z,9.30
2019-03-27T10:12:22.312Z,9.70
2019-03-27T10:14:28.409Z,10.20
2019-03-27T10:16:34.466Z,10.20
2019-03-27T10:18:40.440Z,11.20
2019-03-27T10:20:46.503Z,11.40
2019-03-27T10:22:52.534Z,12.20
2019-03-27T10:24:58.675Z,11.50
2019-03-27T10:27:04.690Z,12.00
2019-03-27T10:29:10.705Z,13.60
2019-03-27T10:31:16.729Z,13.70
2019-03-27T10:33:22.862Z,13.00
2019-03-27T10:35:28.870Z,11.70
2019-03-27T10:37:35.012Z,11.10
2019-03-27T10:39:41.052Z,10.00
2019-03-27T10:41:47.059Z,9.80
2019-03-27T10:43:55.491Z,9.60
2019-03-27T10:46:01.507Z,9.60
2019-03-27T10:48:07.544Z,9.60
2019-03-27T10:50:17.775Z,9.40
2019-03-27T10:52:22.467Z,9.20
2019-03-27T10:54:28.955Z,9.30
2019-03-27T10:56:35.042Z,9.40
2019-03-27T10:58:41.141Z,9.60
2019-03-27T11:00:47.150Z,9.50
2019-03-27T11:02:54.795Z,8.90
2019-03-27T11:05:00.775Z,9.30
2019-03-27T11:07:06.755Z,9.20
2019-03-27T11:09:12.815Z,9.20
2019-03-27T11:11:18.838Z,9.10
2019-03-27T11:13:24.849Z,9.00
2019-03-27T11:15:30.918Z,9.20
2019-03-27T11:17:36.891Z,8.90
2019-03-27T11:19:42.982Z,8.90
2019-03-27T11:21:49.018Z,8.80
2019-03-27T11:23:55.072Z,8.90
2019-03-27T11:26:01.504Z,8.90
2019-03-27T11:28:07.579Z,8.90
2019-03-27T11:30:13.785Z,9.10
2019-03-27T11:32:19.859Z,9.00
2019-03-27T11:34:25.942Z,9.10
2019-03-27T11:36:35.032Z,9.20
2019-03-27T11:38:39.619Z,9.10
2019-03-27T11:40:45.647Z,9.20
2019-03-27T11:42:51.655Z,9.30
2019-03-27T11:44:57.643Z,9.20
2019-03-27T11:47:04.836Z,9.40
2019-03-27T11:49:10.873Z,9.30
2019-03-27T11:51:16.928Z,9.20
2019-03-27T11:53:22.941Z,9.10
2019-03-27T11:55:29.218Z,8.90
2019-03-27T11:57:35.260Z,8.90
2019-03-27T11:59:53.347Z,8.70
2019-03-27T12:01:58.097Z,8.70
2019-03-27T12:04:05.198Z,8.70
2019-03-27T12:06:11.215Z,8.70
2019-03-27T12:08:17.206Z,8.70
2019-03-27T12:10:23.233Z,8.70
2019-03-27T12:12:29.290Z,8.70
2019-03-27T12:14:35.274Z,8.70
2019-03-27T12:16:41.346Z,8.90
2019-03-27T12:18:47.306Z,8.80
2019-03-27T12:20:59.416Z,9.00
2019-03-27T12:23:00.954Z,9.20
2019-03-27T12:25:07.887Z,9.20
2019-03-27T12:27:15.594Z,9.30
2019-03-27T12:29:21.651Z,9.20
2019-03-27T12:31:27.798Z,9.20
2019-03-27T12:33:33.774Z,9.20
2019-03-27T12:35:39.759Z,9.40
2019-03-27T12:37:45.773Z,9.50
2019-03-27T12:39:51.815Z,9.80
2019-03-27T12:41:57.839Z,10.10
2019-03-27T12:44:03.918Z,10.00
2019-03-27T12:46:09.912Z,9.80
2019-03-27T12:48:15.966Z,9.90
2019-03-27T12:50:22.001Z,9.70
2019-03-27T12:52:27.951Z,9.70
2019-03-27T12:54:36.064Z,9.60
2019-03-27T12:56:42.082Z,9.40
2019-03-27T12:58:48.060Z,9.30
2019-03-27T13:00:54.137Z,9.20
2019-03-27T13:03:00.182Z,9.00
2019-03-27T13:05:06.474Z,9.00
2019-03-27T13:07:12.419Z,9.00
2019-03-27T13:09:20.718Z,9.10
2019-03-27T13:11:27.217Z,9.30
2019-03-27T13:13:33.150Z,9.40
2019-03-27T13:15:39.231Z,9.40
2019-03-27T13:17:45.271Z,9.40
2019-03-27T13:19:51.316Z,9.50
2019-03-27T13:21:57.306Z,9.50
2019-03-27T13:24:03.414Z,9.60
2019-03-27T13:26:09.430Z,9.90
2019-03-27T13:28:15.432Z,9.90
2019-03-27T13:30:24.866Z,10.00
2019-03-27T13:32:30.931Z,10.10
2019-03-27T13:34:36.970Z,10.00
2019-03-27T13:36:47.844Z,10.00
2019-03-27T13:38:53.847Z,9.90
2019-03-27T13:40:59.851Z,9.80
2019-03-27T13:43:05.912Z,9.40
2019-03-27T13:45:12.315Z,9.30
2019-03-27T13:47:18.376Z,9.00
2019-03-27T13:49:24.413Z,9.20
2019-03-27T13:51:40.610Z,9.00
2019-03-27T13:53:38.083Z,8.90
2019-03-27T13:55:44.134Z,8.90
2019-03-27T13:57:50.351Z,8.70
2019-03-27T13:59:56.361Z,8.70
2019-03-27T14:02:02.367Z,8.70
2019-03-27T14:04:08.427Z,8.70
2019-03-27T14:06:14.454Z,8.90
2019-03-27T14:08:20.460Z,8.60
2019-03-27T14:10:28.150Z,8.60
2019-03-27T14:12:37.279Z,8.40
2019-03-27T14:14:50.268Z,8.50
2019-03-27T14:16:50.951Z,8.60
2019-03-27T14:18:56.927Z,8.30
2019-03-27T14:21:02.878Z,8.50
2019-03-27T14:23:08.898Z,8.50
2019-03-27T14:25:16.656Z,8.50
2019-03-27T14:27:22.659Z,8.70
2019-03-27T14:29:28.629Z,8.80
2019-03-27T14:31:34.683Z,8.60
2019-03-27T14:33:40.654Z,8.80
2019-03-27T14:35:46.634Z,8.90
2019-03-27T14:37:52.614Z,8.90
2019-03-27T14:39:58.590Z,8.80
2019-03-27T14:42:04.632Z,9.10
2019-03-27T14:44:10.579Z,9.60
2019-03-27T14:46:16.651Z,9.90
2019-03-27T14:48:22.613Z,10.00
2019-03-27T14:50:28.674Z,9.90
2019-03-27T14:52:34.698Z,9.60
2019-03-27T14:54:40.794Z,9.50
2019-03-27T14:56:46.813Z,9.40
2019-03-27T14:58:52.850Z,9.30
2019-03-27T15:00:58.806Z,9.00
2019-03-27T15:03:04.887Z,8.90
2019-03-27T15:05:11.146Z,8.70
2019-03-27T15:07:17.139Z,8.60
2019-03-27T15:09:23.202Z,8.50
2019-03-27T15:11:29.157Z,8.60
2019-03-27T15:13:35.189Z,8.60
2019-03-27T15:15:42.763Z,8.40
2019-03-27T15:17:48.747Z,8.40
2019-03-27T15:19:54.739Z,8.50
2019-03-27T15:22:00.746Z,8.50
2019-03-27T15:24:06.719Z,8.60
2019-03-27T15:26:12.780Z,8.70
2019-03-27T15:28:21.735Z,8.70
2019-03-27T15:30:27.708Z,8.70
2019-03-27T15:32:33.676Z,8.70
2019-03-27T15:34:39.659Z,8.70
2019-03-27T15:36:45.637Z,8.50
2019-03-27T15:38:51.626Z,8.50
2019-03-27T15:40:57.585Z,8.60
2019-03-27T15:43:03.566Z,8.60
2019-03-27T15:45:10.274Z,8.70
2019-03-27T15:47:17.886Z,8.60
2019-03-27T15:49:24.166Z,8.60
2019-03-27T15:51:30.146Z,8.50
2019-03-27T15:53:36.119Z,8.50
2019-03-27T15:55:42.121Z,8.40
2019-03-27T15:57:48.088Z,8.30
2019-03-27T15:59:54.070Z,8.20
2019-03-27T16:02:00.063Z,8.30
2019-03-27T16:04:06.032Z,8.20
2019-03-27T16:06:12.985Z,8.10
2019-03-27T16:08:19.059Z,7.90
2019-03-27T16:10:25.035Z,7.70
2019-03-27T16:12:30.995Z,7.60
2019-03-27T16:14:37.011Z,7.50
2019-03-27T16:16:56.256Z,7.50
2019-03-27T16:18:50.637Z,7.50
2019-03-27T16:20:59.384Z,7.40
2019-03-27T16:23:05.374Z,7.40
2019-03-27T16:25:12.910Z,7.30
2019-03-27T16:27:18.923Z,7.40
2019-03-27T16:29:24.870Z,7.30
2019-03-27T16:31:30.860Z,7.30
2019-03-27T16:33:36.883Z,7.30
2019-03-27T16:35:42.898Z,7.20
2019-03-27T16:37:48.938Z,7.20
2019-03-27T16:39:55.015Z,7.20
2019-03-27T16:42:04.009Z,7.10
2019-03-27T16:44:10.018Z,7.00
2019-03-27T16:46:15.985Z,7.00
2019-03-27T16:48:22.041Z,6.90
2019-03-27T16:50:28.013Z,6.90
2019-03-27T16:52:33.955Z,6.90
2019-03-27T16:54:39.930Z,6.80
2019-03-27T16:56:45.959Z,6.70
2019-03-27T16:58:51.935Z,6.60
2019-03-27T17:00:57.882Z,6.60
2019-03-27T17:03:05.961Z,6.50
2019-03-27T17:05:12.100Z,6.40
2019-03-27T17:07:18.063Z,6.40
2019-03-27T17:09:24.049Z,6.40
2019-03-27T17:11:30.102Z,6.40
2019-03-27T17:13:36.131Z,6.30
2019-03-27T17:15:42.206Z,6.20
2019-03-27T17:17:48.447Z,6.20
2019-03-27T17:19:54.430Z,6.20
2019-03-27T17:22:00.402Z,6.10
2019-03-27T17:24:09.521Z,6.10
2019-03-27T17:26:15.952Z,6.00
2019-03-27T17:28:21.902Z,6.00
2019-03-27T17:30:27.914Z,6.00
2019-03-27T17:32:33.925Z,5.90
2019-03-27T17:34:39.969Z,5.90
2019-03-27T17:36:45.947Z,5.90
2019-03-27T17:38:51.902Z,5.90
2019-03-27T17:40:58.506Z,5.90
2019-03-27T17:43:04.885Z,5.90
2019-03-27T17:45:13.988Z,5.80
2019-03-27T17:47:20.314Z,5.60
2019-03-27T17:49:26.291Z,5.50
2019-03-27T17:51:32.359Z,5.50
2019-03-27T17:53:38.418Z,5.50
2019-03-27T17:55:47.063Z,5.40
2019-03-27T17:57:53.101Z,5.40
2019-03-27T17:59:59.506Z,5.30
2019-03-27T18:02:05.611Z,5.20
2019-03-27T18:04:11.743Z,5.20
2019-03-27T18:06:19.185Z,5.10
2019-03-27T18:08:25.362Z,4.90
2019-03-27T18:10:31.365Z,4.80
2019-03-27T18:12:37.376Z,4.70
2019-03-27T18:14:43.366Z,4.50
2019-03-27T18:16:49.379Z,4.30
2019-03-27T18:18:55.351Z,4.30
2019-03-27T18:21:01.434Z,4.00
2019-03-27T18:23:56.637Z,3.80
2019-03-27T18:25:42.858Z,3.70
2019-03-27T18:27:48.867Z,3.60
2019-03-27T18:29:56.094Z,3.50
2019-03-27T18:32:02.626Z,3.40
2019-03-27T18:34:11.413Z,3.40
2019-03-27T18:36:17.566Z,3.20
2019-03-27T18:38:26.069Z,3.10
2019-03-27T18:40:32.103Z,3.10
2019-03-27T18:42:38.227Z,3.00
2019-03-27T18:44:46.981Z,3.00
2019-03-27T18:46:56.262Z,3.00
2019-03-27T18:49:03.622Z,3.00
2019-03-27T18:51:10.238Z,2.80
2019-03-27T18:53:27.257Z,2.70
2019-03-27T18:55:33.489Z,2.60
2019-03-27T18:57:39.879Z,2.60
2019-03-27T18:59:46.656Z,2.80
2019-03-27T19:01:55.587Z,2.60
2019-03-27T19:04:06.355Z,2.50
2019-03-27T19:06:22.876Z,2.50
2019-03-27T19:08:29.143Z,2.50
2019-03-27T19:10:37.879Z,2.40
2019-03-27T19:12:43.943Z,2.30
2019-03-27T19:15:00.342Z,2.20
2019-03-27T19:17:11.820Z,2.10
2019-03-27T19:19:25.628Z,1.80
2019-03-27T19:21:39.579Z,1.80
2019-03-27T19:23:47.563Z,1.70
2019-03-27T19:25:53.782Z,1.60
2019-03-27T19:28:03.907Z,1.50
2019-03-27T19:30:11.152Z,1.50
2019-03-27T19:32:17.382Z,1.40
2019-03-27T19:34:23.731Z,1.30
2019-03-27T19:36:31.226Z,1.20
2019-03-27T19:38:37.371Z,1.10
2019-03-27T19:40:43.479Z,1.00
2019-03-27T19:42:58.111Z,1.00
2019-03-27T19:45:04.226Z,0.80
2019-03-27T19:47:10.580Z,0.80
2019-03-27T19:49:27.382Z,0.70
2019-03-27T19:51:36.632Z,0.60
2019-03-27T19:53:42.888Z,0.40
2019-03-27T19:55:49.036Z,0.40
2019-03-27T19:57:57.131Z,0.40
2019-03-27T20:00:03.138Z,0.30
2019-03-27T20:02:09.238Z,0.20
2019-03-27T20:04:15.239Z,0.20
2019-03-27T20:06:21.223Z,0.10
2019-03-27T20:08:27.252Z,0.00
2019-03-27T20:10:43.542Z,0.10
2019-03-27T20:12:49.867Z,-0.10
2019-03-27T20:14:56.313Z,-0.10
2019-03-27T20:17:03.188Z,-0.20
2019-03-27T20:19:12.346Z,-0.20
2019-03-27T20:21:19.670Z,-0.30
2019-03-27T20:23:25.965Z,-0.40
2019-03-27T20:25:31.959Z,-0.50
2019-03-27T20:27:37.974Z,-0.50
2019-03-27T20:29:46.616Z,-0.50
2019-03-27T20:31:53.265Z,-0.50
2019-03-27T20:33:59.395Z,-0.60
2019-03-27T20:36:05.406Z,-0.60
2019-03-27T20:38:11.475Z,-0.70
2019-03-27T20:40:18.471Z,-0.70
2019-03-27T20:42:25.784Z,-0.80
2019-03-27T20:44:32.520Z,-0.80
2019-03-27T20:46:39.415Z,-0.90
2019-03-27T20:48:47.552Z,-0.90
2019-03-27T20:50:54.442Z,-0.90
2019-03-27T20:53:03.462Z,-0.90
2019-03-27T20:55:10.677Z,-0.80
2019-03-27T20:57:17.634Z,-0.80
2019-03-27T20:59:24.375Z,-0.90
2019-03-27T21:01:32.396Z,-1.00
2019-03-27T21:03:39.132Z,-1.10
2019-03-27T21:05:49.605Z,-1.10
2019-03-27T21:07:58.752Z,-1.00
2019-03-27T21:10:06.061Z,-1.00
2019-03-27T21:12:12.801Z,-0.90
2019-03-27T21:14:20.255Z,-1.00
2019-03-27T21:16:27.043Z,-1.20
2019-03-27T21:18:34.042Z,-1.20
2019-03-27T21:20:43.654Z,-1.20
2019-03-27T21:22:53.114Z,-1.20
2019-03-27T21:25:08.666Z,-1.20
2019-03-27T21:27:07.906Z,-1.20
2019-03-27T21:29:13.906Z,-1.30
2019-03-27T21:31:19.886Z,-1.40
2019-03-27T21:33:25.922Z,-1.50
2019-03-27T21:35:31.922Z,-1.50
2019-03-27T21:37:37.903Z,-1.50
2019-03-27T21:39:43.894Z,-1.60
2019-03-27T21:41:49.900Z,-1.60
2019-03-27T21:43:56.055Z,-1.50
2019-03-27T21:46:02.139Z,-1.50
2019-03-27T21:48:08.190Z,-1.60
2019-03-27T21:50:14.403Z,-1.60
2019-03-27T21:52:20.485Z,-1.70
2019-03-27T21:54:26.815Z,-1.80
2019-03-27T21:56:32.924Z,-1.70
2019-03-27T21:58:38.987Z,-1.60
2019-03-27T22:00:45.036Z,-1.70
2019-03-27T22:02:51.066Z,-1.60
2019-03-27T22:04:59.449Z,-1.60
2019-03-27T22:07:05.518Z,-1.60
2019-03-27T22:09:11.622Z,-1.60
2019-03-27T22:11:17.621Z,-1.60
2019-03-27T22:13:23.728Z,-1.70
2019-03-27T22:15:29.750Z,-1.70
2019-03-27T22:17:35.703Z,-1.80
2019-03-27T22:19:41.747Z,-1.80
2019-03-27T22:21:47.854Z,-1.80
2019-03-27T22:23:53.872Z,-1.80
2019-03-27T22:26:02.305Z,-1.80
2019-03-27T22:28:08.649Z,-1.80
2019-03-27T22:30:14.766Z,-1.90
2019-03-27T22:32:20.819Z,-1.90
2019-03-27T22:34:26.947Z,-1.80
2019-03-27T22:36:32.947Z,-1.90
2019-03-27T22:38:38.926Z,-1.90
2019-03-27T22:40:44.937Z,-2.00
2019-03-27T22:42:51.002Z,-1.90
2019-03-27T22:44:56.995Z,-2.10
2019-03-27T22:47:03.180Z,-2.00
2019-03-27T22:49:09.186Z,-2.10
2019-03-27T22:51:15.261Z,-2.00
2019-03-27T22:53:21.491Z,-1.90
2019-03-27T22:55:27.550Z,-1.90
2019-03-27T22:57:33.558Z,-2.00
2019-03-27T22:59:39.557Z,-1.90
2019-03-27T23:01:48.229Z,-1.90
2019-03-27T23:03:54.310Z,-1.80
2019-03-27T23:06:03.103Z,-1.70
2019-03-27T23:08:09.102Z,-1.70
2019-03-27T23:10:15.376Z,-1.70
2019-03-27T23:12:21.475Z,-1.80
2019-03-27T23:14:29.910Z,-1.90
2019-03-27T23:16:36.581Z,-1.90
2019-03-27T23:18:42.922Z,-2.00
2019-03-27T23:20:51.519Z,-2.00
2019-03-27T23:22:57.550Z,-2.10
2019-03-27T23:25:03.519Z,-2.00
2019-03-27T23:27:11.191Z,-2.00
2019-03-27T23:29:17.218Z,-2.10
2019-03-27T23:31:23.222Z,-2.10
2019-03-27T23:33:29.272Z,-2.10
2019-03-27T23:35:35.298Z,-2.10
2019-03-27T23:37:43.071Z,-2.10
2019-03-27T23:39:49.251Z,-2.10
2019-03-27T23:41:55.358Z,-2.20
2019-03-27T23:44:04.156Z,-2.10
2019-03-27T23:46:12.632Z,-2.10
2019-03-27T23:48:18.587Z,-2.00
2019-03-27T23:50:29.486Z,-2.10
2019-03-27T23:52:35.491Z,-2.20
2019-03-27T23:54:41.502Z,-2.10
2019-03-27T23:56:48.108Z,-2.20
2019-03-27T23:58:54.199Z,-2.30
